sensor_id;sensor_type;location;lat;lon;timestamp;P1;durP1;ratioP1;P2;durP2;ratioP2
20906;SDS011;10613;50.966;5.814;2023-07-09T00:01:00;17.50;;;16.00;;
20906;SDS011;10613;50.966;5.814;2023-07-09T00:05:11;16.00;;;15.50;;
20906;SDS011;10613;50.966;5.814;2023-07-09T00:09:19;15.50;;;12.50;;
20906;SDS011;10613;50.966;5.814;2023-07-09T00:13:26;19.25;;;18.25;;
20906;SDS011;10613;50.966;5.814;2023-07-09T00:17:33;16.25;;;16.25;;
20906;SDS011;10613;50.966;5.814;2023-07-09T00:21:40;11.00;;;10.25;;
20906;SDS011;10613;50.966;5.814;2023-07-09T00:25:48;14.50;;;13.25;;
20906;SDS011;10613;50.966;5.814;2023-07-09T00:29:54;7.00;;;7.00;;
20906;SDS011;10613;50.966;5.814;2023-07-09T00:34:01;13.75;;;13.75;;
20906;SDS011;10613;50.966;5.814;2023-07-09T00:38:19;12.00;;;12.00;;
20906;SDS011;10613;50.966;5.814;2023-07-09T00:42:29;16.00;;;14.00;;
20906;SDS011;10613;50.966;5.814;2023-07-09T00:50:48;14.75;;;14.75;;
20906;SDS011;10613;50.966;5.814;2023-07-09T00:54:56;12.75;;;11.50;;
20906;SDS011;10613;50.966;5.814;2023-07-09T00:59:09;13.50;;;12.50;;
20906;SDS011;10613;50.966;5.814;2023-07-09T01:07:34;18.00;;;17.75;;
20906;SDS011;10613;50.966;5.814;2023-07-09T01:11:40;10.50;;;10.50;;
20906;SDS011;10613;50.966;5.814;2023-07-09T01:15:47;15.50;;;13.00;;
20906;SDS011;10613;50.966;5.814;2023-07-09T01:19:55;16.00;;;16.00;;
20906;SDS011;10613;50.966;5.814;2023-07-09T01:24:15;13.00;;;12.00;;
20906;SDS011;10613;50.966;5.814;2023-07-09T01:28:26;13.00;;;13.00;;
20906;SDS011;10613;50.966;5.814;2023-07-09T01:32:33;16.00;;;14.75;;
20906;SDS011;10613;50.966;5.814;2023-07-09T01:36:40;11.00;;;10.50;;
20906;SDS011;10613;50.966;5.814;2023-07-09T01:40:47;13.75;;;12.50;;
20906;SDS011;10613;50.966;5.814;2023-07-09T01:44:54;11.50;;;11.00;;
20906;SDS011;10613;50.966;5.814;2023-07-09T01:49:01;14.00;;;12.50;;
20906;SDS011;10613;50.966;5.814;2023-07-09T01:53:10;10.00;;;9.50;;
20906;SDS011;10613;50.966;5.814;2023-07-09T01:57:19;13.25;;;12.25;;
20906;SDS011;10613;50.966;5.814;2023-07-09T02:01:29;11.75;;;10.75;;
20906;SDS011;10613;50.966;5.814;2023-07-09T02:05:36;13.00;;;11.25;;
20906;SDS011;10613;50.966;5.814;2023-07-09T02:09:43;17.50;;;16.75;;
20906;SDS011;10613;50.966;5.814;2023-07-09T02:13:50;13.75;;;13.00;;
20906;SDS011;10613;50.966;5.814;2023-07-09T02:17:57;12.50;;;11.75;;
20906;SDS011;10613;50.966;5.814;2023-07-09T02:22:06;11.50;;;11.50;;
20906;SDS011;10613;50.966;5.814;2023-07-09T02:26:12;10.75;;;10.00;;
20906;SDS011;10613;50.966;5.814;2023-07-09T02:30:19;15.50;;;15.50;;
20906;SDS011;10613;50.966;5.814;2023-07-09T02:34:27;12.75;;;12.50;;
20906;SDS011;10613;50.966;5.814;2023-07-09T02:38:33;11.00;;;11.00;;
20906;SDS011;10613;50.966;5.814;2023-07-09T02:42:40;12.25;;;11.00;;
20906;SDS011;10613;50.966;5.814;2023-07-09T02:46:51;13.25;;;11.75;;
20906;SDS011;10613;50.966;5.814;2023-07-09T02:50:57;15.50;;;12.75;;
20906;SDS011;10613;50.966;5.814;2023-07-09T02:55:04;12.75;;;12.75;;
20906;SDS011;10613;50.966;5.814;2023-07-09T02:59:18;14.00;;;13.75;;
20906;SDS011;10613;50.966;5.814;2023-07-09T03:03:27;13.25;;;11.25;;
20906;SDS011;10613;50.966;5.814;2023-07-09T03:07:35;11.25;;;11.00;;
20906;SDS011;10613;50.966;5.814;2023-07-09T03:11:42;13.50;;;12.00;;
20906;SDS011;10613;50.966;5.814;2023-07-09T03:15:56;15.25;;;13.25;;
20906;SDS011;10613;50.966;5.814;2023-07-09T03:20:11;16.50;;;15.50;;
20906;SDS011;10613;50.966;5.814;2023-07-09T03:24:17;16.75;;;16.00;;
20906;SDS011;10613;50.966;5.814;2023-07-09T03:28:29;16.00;;;14.75;;
20906;SDS011;10613;50.966;5.814;2023-07-09T03:32:37;10.00;;;10.00;;
20906;SDS011;10613;50.966;5.814;2023-07-09T03:36:44;13.00;;;12.25;;
20906;SDS011;10613;50.966;5.814;2023-07-09T03:40:52;11.50;;;10.25;;
20906;SDS011;10613;50.966;5.814;2023-07-09T03:44:59;13.00;;;12.25;;
20906;SDS011;10613;50.966;5.814;2023-07-09T03:49:06;13.00;;;12.75;;
20906;SDS011;10613;50.966;5.814;2023-07-09T03:53:14;12.50;;;12.50;;
20906;SDS011;10613;50.966;5.814;2023-07-09T03:57:20;19.50;;;17.50;;
20906;SDS011;10613;50.966;5.814;2023-07-09T04:01:27;16.25;;;15.00;;
20906;SDS011;10613;50.966;5.814;2023-07-09T04:05:34;13.00;;;13.00;;
20906;SDS011;10613;50.966;5.814;2023-07-09T04:09:42;11.50;;;11.50;;
20906;SDS011;10613;50.966;5.814;2023-07-09T04:13:48;14.75;;;14.75;;
20906;SDS011;10613;50.966;5.814;2023-07-09T04:17:55;12.25;;;11.00;;
20906;SDS011;10613;50.966;5.814;2023-07-09T04:22:03;13.50;;;11.25;;
20906;SDS011;10613;50.966;5.814;2023-07-09T04:26:13;14.00;;;14.00;;
20906;SDS011;10613;50.966;5.814;2023-07-09T04:30:21;18.75;;;18.25;;
20906;SDS011;10613;50.966;5.814;2023-07-09T04:34:28;16.25;;;14.75;;
20906;SDS011;10613;50.966;5.814;2023-07-09T04:38:34;15.00;;;14.50;;
20906;SDS011;10613;50.966;5.814;2023-07-09T04:42:42;13.75;;;13.75;;
20906;SDS011;10613;50.966;5.814;2023-07-09T04:46:49;17.75;;;14.50;;
20906;SDS011;10613;50.966;5.814;2023-07-09T04:50:56;16.25;;;13.00;;
20906;SDS011;10613;50.966;5.814;2023-07-09T04:55:03;13.00;;;12.25;;
20906;SDS011;10613;50.966;5.814;2023-07-09T04:59:11;10.00;;;10.00;;
20906;SDS011;10613;50.966;5.814;2023-07-09T05:03:18;11.50;;;11.50;;
20906;SDS011;10613;50.966;5.814;2023-07-09T05:07:26;13.25;;;12.50;;
20906;SDS011;10613;50.966;5.814;2023-07-09T05:11:33;14.00;;;12.00;;
20906;SDS011;10613;50.966;5.814;2023-07-09T05:15:42;11.00;;;11.00;;
20906;SDS011;10613;50.966;5.814;2023-07-09T05:19:49;13.25;;;13.00;;
20906;SDS011;10613;50.966;5.814;2023-07-09T05:23:56;10.50;;;9.50;;
20906;SDS011;10613;50.966;5.814;2023-07-09T05:28:03;12.00;;;12.00;;
20906;SDS011;10613;50.966;5.814;2023-07-09T05:32:10;12.25;;;11.50;;
20906;SDS011;10613;50.966;5.814;2023-07-09T05:36:17;10.75;;;10.00;;
20906;SDS011;10613;50.966;5.814;2023-07-09T05:40:25;10.50;;;10.50;;
20906;SDS011;10613;50.966;5.814;2023-07-09T05:44:32;11.75;;;11.00;;
20906;SDS011;10613;50.966;5.814;2023-07-09T05:48:39;10.50;;;10.50;;
20906;SDS011;10613;50.966;5.814;2023-07-09T05:52:46;11.50;;;10.50;;
20906;SDS011;10613;50.966;5.814;2023-07-09T05:56:53;10.75;;;9.00;;
20906;SDS011;10613;50.966;5.814;2023-07-09T06:01:00;12.00;;;10.25;;
20906;SDS011;10613;50.966;5.814;2023-07-09T06:05:07;10.50;;;10.50;;
20906;SDS011;10613;50.966;5.814;2023-07-09T06:09:17;12.50;;;11.50;;
20906;SDS011;10613;50.966;5.814;2023-07-09T06:13:24;10.00;;;10.00;;
20906;SDS011;10613;50.966;5.814;2023-07-09T06:17:31;10.50;;;9.50;;
20906;SDS011;10613;50.966;5.814;2023-07-09T06:21:38;9.50;;;9.50;;
20906;SDS011;10613;50.966;5.814;2023-07-09T06:25:46;8.00;;;8.00;;
20906;SDS011;10613;50.966;5.814;2023-07-09T06:29:54;10.00;;;10.00;;
20906;SDS011;10613;50.966;5.814;2023-07-09T06:34:01;9.00;;;9.00;;
20906;SDS011;10613;50.966;5.814;2023-07-09T06:38:08;11.00;;;11.00;;
20906;SDS011;10613;50.966;5.814;2023-07-09T06:42:15;8.00;;;8.00;;
20906;SDS011;10613;50.966;5.814;2023-07-09T06:46:35;10.25;;;9.00;;
20906;SDS011;10613;50.966;5.814;2023-07-09T06:50:43;11.00;;;10.00;;
20906;SDS011;10613;50.966;5.814;2023-07-09T06:54:50;9.75;;;9.75;;
20906;SDS011;10613;50.966;5.814;2023-07-09T06:58:57;7.00;;;7.00;;
20906;SDS011;10613;50.966;5.814;2023-07-09T07:03:04;10.50;;;10.50;;
20906;SDS011;10613;50.966;5.814;2023-07-09T07:07:12;10.25;;;10.25;;
20906;SDS011;10613;50.966;5.814;2023-07-09T07:11:19;8.25;;;8.25;;
20906;SDS011;10613;50.966;5.814;2023-07-09T07:15:26;9.75;;;9.00;;
20906;SDS011;10613;50.966;5.814;2023-07-09T07:19:33;9.25;;;9.25;;
20906;SDS011;10613;50.966;5.814;2023-07-09T07:23:40;9.50;;;9.50;;
20906;SDS011;10613;50.966;5.814;2023-07-09T07:27:47;9.00;;;9.00;;
20906;SDS011;10613;50.966;5.814;2023-07-09T07:31:54;11.00;;;10.25;;
20906;SDS011;10613;50.966;5.814;2023-07-09T07:36:03;12.00;;;11.25;;
20906;SDS011;10613;50.966;5.814;2023-07-09T07:40:10;14.25;;;13.50;;
20906;SDS011;10613;50.966;5.814;2023-07-09T07:44:17;11.75;;;11.25;;
20906;SDS011;10613;50.966;5.814;2023-07-09T07:48:24;13.75;;;11.00;;
20906;SDS011;10613;50.966;5.814;2023-07-09T07:52:31;10.00;;;9.75;;
20906;SDS011;10613;50.966;5.814;2023-07-09T07:56:38;11.25;;;9.50;;
20906;SDS011;10613;50.966;5.814;2023-07-09T08:00:45;12.00;;;12.00;;
20906;SDS011;10613;50.966;5.814;2023-07-09T08:04:52;12.00;;;12.00;;
20906;SDS011;10613;50.966;5.814;2023-07-09T08:08:59;10.25;;;9.25;;
20906;SDS011;10613;50.966;5.814;2023-07-09T08:13:06;10.50;;;9.75;;
20906;SDS011;10613;50.966;5.814;2023-07-09T08:17:13;11.50;;;11.00;;
20906;SDS011;10613;50.966;5.814;2023-07-09T08:21:20;11.50;;;10.25;;
20906;SDS011;10613;50.966;5.814;2023-07-09T08:25:34;13.25;;;11.00;;
20906;SDS011;10613;50.966;5.814;2023-07-09T08:29:41;11.75;;;11.75;;
20906;SDS011;10613;50.966;5.814;2023-07-09T08:33:49;13.25;;;13.25;;
20906;SDS011;10613;50.966;5.814;2023-07-09T08:37:57;11.50;;;11.00;;
20906;SDS011;10613;50.966;5.814;2023-07-09T08:42:05;11.25;;;11.00;;
20906;SDS011;10613;50.966;5.814;2023-07-09T08:46:20;10.75;;;10.75;;
20906;SDS011;10613;50.966;5.814;2023-07-09T08:50:38;7.00;;;7.00;;
20906;SDS011;10613;50.966;5.814;2023-07-09T08:54:47;10.25;;;8.50;;
20906;SDS011;10613;50.966;5.814;2023-07-09T08:58:56;10.00;;;9.00;;
20906;SDS011;10613;50.966;5.814;2023-07-09T09:03:08;12.00;;;10.00;;
20906;SDS011;10613;50.966;5.814;2023-07-09T09:07:28;10.25;;;9.25;;
20906;SDS011;10613;50.966;5.814;2023-07-09T09:11:43;11.00;;;9.75;;
20906;SDS011;10613;50.966;5.814;2023-07-09T09:15:51;11.25;;;9.00;;
20906;SDS011;10613;50.966;5.814;2023-07-09T09:20:02;8.75;;;8.00;;
20906;SDS011;10613;50.966;5.814;2023-07-09T09:24:17;11.25;;;11.25;;
20906;SDS011;10613;50.966;5.814;2023-07-09T09:28:26;8.00;;;7.50;;
20906;SDS011;10613;50.966;5.814;2023-07-09T09:32:41;13.75;;;12.25;;
20906;SDS011;10613;50.966;5.814;2023-07-09T09:36:49;9.75;;;9.75;;
20906;SDS011;10613;50.966;5.814;2023-07-09T09:40:59;13.75;;;12.50;;
20906;SDS011;10613;50.966;5.814;2023-07-09T09:45:10;10.25;;;10.25;;
20906;SDS011;10613;50.966;5.814;2023-07-09T09:49:19;9.00;;;9.00;;
20906;SDS011;10613;50.966;5.814;2023-07-09T09:53:26;12.25;;;12.00;;
20906;SDS011;10613;50.966;5.814;2023-07-09T09:57:35;12.00;;;12.00;;
20906;SDS011;10613;50.966;5.814;2023-07-09T10:01:42;10.75;;;9.00;;
20906;SDS011;10613;50.966;5.814;2023-07-09T10:05:56;12.00;;;12.00;;
20906;SDS011;10613;50.966;5.814;2023-07-09T10:10:08;12.25;;;12.00;;
20906;SDS011;10613;50.966;5.814;2023-07-09T10:35:15;9.00;;;9.00;;
20906;SDS011;10613;50.966;5.814;2023-07-09T10:43:59;11.25;;;11.25;;
20906;SDS011;10613;50.966;5.814;2023-07-09T10:48:10;10.50;;;10.50;;
20906;SDS011;10613;50.966;5.814;2023-07-09T10:52:23;9.75;;;9.75;;
20906;SDS011;10613;50.966;5.814;2023-07-09T10:56:32;10.00;;;9.25;;
20906;SDS011;10613;50.966;5.814;2023-07-09T11:00:42;9.50;;;9.50;;
20906;SDS011;10613;50.966;5.814;2023-07-09T11:04:56;12.00;;;9.50;;
20906;SDS011;10613;50.966;5.814;2023-07-09T11:09:06;10.00;;;10.00;;
20906;SDS011;10613;50.966;5.814;2023-07-09T11:13:21;10.25;;;10.25;;
20906;SDS011;10613;50.966;5.814;2023-07-09T11:17:31;12.00;;;9.75;;
20906;SDS011;10613;50.966;5.814;2023-07-09T11:21:44;11.25;;;11.25;;
20906;SDS011;10613;50.966;5.814;2023-07-09T11:34:27;10.50;;;9.25;;
20906;SDS011;10613;50.966;5.814;2023-07-09T11:38:43;9.00;;;8.00;;
20906;SDS011;10613;50.966;5.814;2023-07-09T11:42:51;11.25;;;11.00;;
20906;SDS011;10613;50.966;5.814;2023-07-09T11:51:46;11.00;;;9.75;;
20906;SDS011;10613;50.966;5.814;2023-07-09T11:55:51;11.75;;;11.75;;
20906;SDS011;10613;50.966;5.814;2023-07-09T11:59:59;11.25;;;11.00;;
20906;SDS011;10613;50.966;5.814;2023-07-09T12:04:12;10.25;;;9.00;;
20906;SDS011;10613;50.966;5.814;2023-07-09T12:08:27;11.00;;;11.00;;
20906;SDS011;10613;50.966;5.814;2023-07-09T12:12:35;10.00;;;10.00;;
20906;SDS011;10613;50.966;5.814;2023-07-09T12:16:43;11.25;;;11.25;;
20906;SDS011;10613;50.966;5.814;2023-07-09T12:20:53;8.50;;;8.50;;
20906;SDS011;10613;50.966;5.814;2023-07-09T12:25:00;9.75;;;9.75;;
20906;SDS011;10613;50.966;5.814;2023-07-09T12:29:07;9.00;;;9.00;;
20906;SDS011;10613;50.966;5.814;2023-07-09T12:33:16;10.25;;;10.00;;
20906;SDS011;10613;50.966;5.814;2023-07-09T12:37:24;11.00;;;11.00;;
20906;SDS011;10613;50.966;5.814;2023-07-09T12:45:41;11.25;;;11.25;;
20906;SDS011;10613;50.966;5.814;2023-07-09T12:49:48;12.00;;;11.00;;
20906;SDS011;10613;50.966;5.814;2023-07-09T12:54:14;14.50;;;12.50;;
20906;SDS011;10613;50.966;5.814;2023-07-09T12:58:23;12.25;;;12.00;;
20906;SDS011;10613;50.966;5.814;2023-07-09T13:02:30;12.25;;;11.25;;
20906;SDS011;10613;50.966;5.814;2023-07-09T13:06:44;12.25;;;12.25;;
20906;SDS011;10613;50.966;5.814;2023-07-09T13:10:51;14.25;;;11.75;;
20906;SDS011;10613;50.966;5.814;2023-07-09T13:15:00;13.25;;;13.25;;
20906;SDS011;10613;50.966;5.814;2023-07-09T13:19:06;13.25;;;13.25;;
20906;SDS011;10613;50.966;5.814;2023-07-09T13:23:16;15.50;;;13.00;;
20906;SDS011;10613;50.966;5.814;2023-07-09T13:27:23;13.50;;;12.00;;
20906;SDS011;10613;50.966;5.814;2023-07-09T13:31:30;11.50;;;10.50;;
20906;SDS011;10613;50.966;5.814;2023-07-09T13:35:37;10.75;;;10.75;;
20906;SDS011;10613;50.966;5.814;2023-07-09T13:39:44;14.25;;;13.50;;
20906;SDS011;10613;50.966;5.814;2023-07-09T13:43:51;10.00;;;10.00;;
20906;SDS011;10613;50.966;5.814;2023-07-09T13:47:59;10.25;;;9.00;;
20906;SDS011;10613;50.966;5.814;2023-07-09T13:52:21;24.25;;;22.00;;
20906;SDS011;10613;50.966;5.814;2023-07-09T13:56:32;22.75;;;22.75;;
20906;SDS011;10613;50.966;5.814;2023-07-09T14:00:41;19.75;;;18.75;;
20906;SDS011;10613;50.966;5.814;2023-07-09T14:04:50;18.75;;;18.75;;
20906;SDS011;10613;50.966;5.814;2023-07-09T14:09:09;26.75;;;26.25;;
20906;SDS011;10613;50.966;5.814;2023-07-09T14:13:17;29.00;;;26.00;;
20906;SDS011;10613;50.966;5.814;2023-07-09T14:17:24;19.25;;;18.75;;
20906;SDS011;10613;50.966;5.814;2023-07-09T14:21:32;26.25;;;23.25;;
20906;SDS011;10613;50.966;5.814;2023-07-09T14:25:40;19.50;;;19.00;;
20906;SDS011;10613;50.966;5.814;2023-07-09T14:29:47;24.00;;;20.75;;
20906;SDS011;10613;50.966;5.814;2023-07-09T14:33:56;16.75;;;16.75;;
20906;SDS011;10613;50.966;5.814;2023-07-09T14:38:16;43.00;;;35.75;;
20906;SDS011;10613;50.966;5.814;2023-07-09T14:42:31;24.75;;;23.50;;
20906;SDS011;10613;50.966;5.814;2023-07-09T14:46:37;20.00;;;20.00;;
20906;SDS011;10613;50.966;5.814;2023-07-09T14:50:45;22.25;;;21.00;;
20906;SDS011;10613;50.966;5.814;2023-07-09T14:54:52;17.00;;;15.50;;
20906;SDS011;10613;50.966;5.814;2023-07-09T14:58:59;17.25;;;16.50;;
20906;SDS011;10613;50.966;5.814;2023-07-09T15:03:07;23.25;;;21.75;;
20906;SDS011;10613;50.966;5.814;2023-07-09T15:07:15;13.75;;;13.75;;
20906;SDS011;10613;50.966;5.814;2023-07-09T15:11:22;20.75;;;20.00;;
20906;SDS011;10613;50.966;5.814;2023-07-09T15:15:30;14.25;;;13.00;;
20906;SDS011;10613;50.966;5.814;2023-07-09T15:19:37;15.25;;;14.00;;
20906;SDS011;10613;50.966;5.814;2023-07-09T15:23:44;13.75;;;12.50;;
20906;SDS011;10613;50.966;5.814;2023-07-09T15:27:51;11.00;;;11.00;;
20906;SDS011;10613;50.966;5.814;2023-07-09T15:31:58;11.75;;;11.75;;
20906;SDS011;10613;50.966;5.814;2023-07-09T15:36:15;14.75;;;13.75;;
20906;SDS011;10613;50.966;5.814;2023-07-09T15:40:28;11.00;;;11.00;;
20906;SDS011;10613;50.966;5.814;2023-07-09T15:44:42;12.25;;;11.00;;
20906;SDS011;10613;50.966;5.814;2023-07-09T15:48:54;8.00;;;7.00;;
20906;SDS011;10613;50.966;5.814;2023-07-09T15:53:09;9.00;;;8.00;;
20906;SDS011;10613;50.966;5.814;2023-07-09T15:57:16;8.75;;;8.75;;
20906;SDS011;10613;50.966;5.814;2023-07-09T16:01:23;12.00;;;10.00;;
20906;SDS011;10613;50.966;5.814;2023-07-09T16:05:30;15.25;;;13.75;;
20906;SDS011;10613;50.966;5.814;2023-07-09T16:09:37;9.25;;;8.50;;
20906;SDS011;10613;50.966;5.814;2023-07-09T16:13:46;7.75;;;7.75;;
20906;SDS011;10613;50.966;5.814;2023-07-09T16:17:53;8.25;;;8.00;;
20906;SDS011;10613;50.966;5.814;2023-07-09T16:22:02;12.75;;;12.75;;
20906;SDS011;10613;50.966;5.814;2023-07-09T16:26:09;8.00;;;8.00;;
20906;SDS011;10613;50.966;5.814;2023-07-09T16:30:19;10.75;;;8.25;;
20906;SDS011;10613;50.966;5.814;2023-07-09T16:34:27;8.00;;;7.00;;
20906;SDS011;10613;50.966;5.814;2023-07-09T16:38:34;9.50;;;9.00;;
20906;SDS011;10613;50.966;5.814;2023-07-09T16:42:42;8.75;;;8.00;;
20906;SDS011;10613;50.966;5.814;2023-07-09T16:46:50;10.50;;;9.00;;
20906;SDS011;10613;50.966;5.814;2023-07-09T16:51:00;7.00;;;6.75;;
20906;SDS011;10613;50.966;5.814;2023-07-09T16:55:08;8.25;;;8.25;;
20906;SDS011;10613;50.966;5.814;2023-07-09T16:59:18;7.00;;;7.00;;
20906;SDS011;10613;50.966;5.814;2023-07-09T17:03:25;7.25;;;7.00;;
20906;SDS011;10613;50.966;5.814;2023-07-09T17:07:33;7.75;;;7.75;;
20906;SDS011;10613;50.966;5.814;2023-07-09T17:11:40;6.75;;;6.75;;
20906;SDS011;10613;50.966;5.814;2023-07-09T17:15:48;7.50;;;7.50;;
20906;SDS011;10613;50.966;5.814;2023-07-09T17:19:54;8.25;;;8.00;;
20906;SDS011;10613;50.966;5.814;2023-07-09T17:24:01;6.00;;;6.00;;
20906;SDS011;10613;50.966;5.814;2023-07-09T17:32:21;7.25;;;7.00;;
20906;SDS011;10613;50.966;5.814;2023-07-09T17:36:29;8.00;;;6.50;;
20906;SDS011;10613;50.966;5.814;2023-07-09T17:40:36;5.25;;;5.25;;
20906;SDS011;10613;50.966;5.814;2023-07-09T17:44:44;5.50;;;4.50;;
20906;SDS011;10613;50.966;5.814;2023-07-09T17:48:50;5.00;;;5.00;;
20906;SDS011;10613;50.966;5.814;2023-07-09T17:52:57;6.00;;;6.00;;
20906;SDS011;10613;50.966;5.814;2023-07-09T17:57:04;6.25;;;5.75;;
20906;SDS011;10613;50.966;5.814;2023-07-09T18:01:11;6.25;;;6.25;;
20906;SDS011;10613;50.966;5.814;2023-07-09T18:05:20;7.00;;;6.00;;
20906;SDS011;10613;50.966;5.814;2023-07-09T18:09:27;6.00;;;6.00;;
20906;SDS011;10613;50.966;5.814;2023-07-09T18:13:34;5.00;;;5.00;;
20906;SDS011;10613;50.966;5.814;2023-07-09T18:17:41;6.50;;;5.50;;
20906;SDS011;10613;50.966;5.814;2023-07-09T18:21:49;6.00;;;5.75;;
20906;SDS011;10613;50.966;5.814;2023-07-09T18:25:55;6.00;;;6.00;;
20906;SDS011;10613;50.966;5.814;2023-07-09T18:30:03;6.25;;;6.25;;
20906;SDS011;10613;50.966;5.814;2023-07-09T18:34:09;5.50;;;5.50;;
20906;SDS011;10613;50.966;5.814;2023-07-09T18:38:16;3.75;;;3.75;;
20906;SDS011;10613;50.966;5.814;2023-07-09T18:42:24;6.25;;;6.25;;
20906;SDS011;10613;50.966;5.814;2023-07-09T18:46:30;6.25;;;6.25;;
20906;SDS011;10613;50.966;5.814;2023-07-09T18:50:39;10.00;;;9.50;;
20906;SDS011;10613;50.966;5.814;2023-07-09T18:54:46;8.00;;;8.00;;
20906;SDS011;10613;50.966;5.814;2023-07-09T18:58:54;10.75;;;7.00;;
20906;SDS011;10613;50.966;5.814;2023-07-09T19:03:01;10.25;;;10.25;;
20906;SDS011;10613;50.966;5.814;2023-07-09T19:07:11;21.25;;;20.75;;
20906;SDS011;10613;50.966;5.814;2023-07-09T19:11:19;23.25;;;20.25;;
20906;SDS011;10613;50.966;5.814;2023-07-09T19:15:28;19.50;;;19.25;;
20906;SDS011;10613;50.966;5.814;2023-07-09T19:19:36;23.50;;;23.50;;
20906;SDS011;10613;50.966;5.814;2023-07-09T19:23:43;28.50;;;28.00;;
20906;SDS011;10613;50.966;5.814;2023-07-09T19:28:15;22.75;;;22.25;;
20906;SDS011;10613;50.966;5.814;2023-07-09T19:32:24;23.25;;;21.50;;
20906;SDS011;10613;50.966;5.814;2023-07-09T19:36:32;20.50;;;19.25;;
20906;SDS011;10613;50.966;5.814;2023-07-09T19:40:39;27.25;;;24.50;;
20906;SDS011;10613;50.966;5.814;2023-07-09T19:44:48;17.75;;;16.75;;
20906;SDS011;10613;50.966;5.814;2023-07-09T19:48:56;21.75;;;21.50;;
20906;SDS011;10613;50.966;5.814;2023-07-09T19:53:09;24.75;;;23.50;;
20906;SDS011;10613;50.966;5.814;2023-07-09T19:57:29;12.25;;;12.25;;
20906;SDS011;10613;50.966;5.814;2023-07-09T20:01:36;23.00;;;20.50;;
20906;SDS011;10613;50.966;5.814;2023-07-09T20:05:43;14.50;;;14.25;;
20906;SDS011;10613;50.966;5.814;2023-07-09T20:09:50;7.00;;;7.00;;
20906;SDS011;10613;50.966;5.814;2023-07-09T20:14:00;15.50;;;14.00;;
20906;SDS011;10613;50.966;5.814;2023-07-09T20:18:14;12.00;;;12.00;;
20906;SDS011;10613;50.966;5.814;2023-07-09T20:22:23;11.75;;;10.75;;
20906;SDS011;10613;50.966;5.814;2023-07-09T20:26:31;11.50;;;11.50;;
20906;SDS011;10613;50.966;5.814;2023-07-09T20:30:38;22.75;;;22.75;;
20906;SDS011;10613;50.966;5.814;2023-07-09T20:34:45;19.50;;;19.00;;
20906;SDS011;10613;50.966;5.814;2023-07-09T20:38:53;12.25;;;12.25;;
20906;SDS011;10613;50.966;5.814;2023-07-09T20:43:00;12.50;;;12.50;;
20906;SDS011;10613;50.966;5.814;2023-07-09T20:47:20;12.50;;;12.25;;
20906;SDS011;10613;50.966;5.814;2023-07-09T20:51:29;16.00;;;15.50;;
20906;SDS011;10613;50.966;5.814;2023-07-09T20:55:36;14.75;;;14.75;;
20906;SDS011;10613;50.966;5.814;2023-07-09T20:59:43;16.50;;;16.00;;
20906;SDS011;10613;50.966;5.814;2023-07-09T21:03:51;12.00;;;11.00;;
20906;SDS011;10613;50.966;5.814;2023-07-09T21:07:58;18.00;;;16.50;;
20906;SDS011;10613;50.966;5.814;2023-07-09T21:12:08;14.00;;;11.25;;
20906;SDS011;10613;50.966;5.814;2023-07-09T21:16:17;10.75;;;10.00;;
20906;SDS011;10613;50.966;5.814;2023-07-09T21:20:32;7.25;;;7.00;;
20906;SDS011;10613;50.966;5.814;2023-07-09T21:24:54;5.50;;;5.50;;
20906;SDS011;10613;50.966;5.814;2023-07-09T21:29:03;10.50;;;10.50;;
20906;SDS011;10613;50.966;5.814;2023-07-09T21:33:13;9.00;;;9.00;;
20906;SDS011;10613;50.966;5.814;2023-07-09T21:37:21;10.00;;;10.00;;
20906;SDS011;10613;50.966;5.814;2023-07-09T21:41:29;8.00;;;6.25;;
20906;SDS011;10613;50.966;5.814;2023-07-09T21:45:36;10.25;;;10.25;;
20906;SDS011;10613;50.966;5.814;2023-07-09T21:49:44;9.75;;;9.75;;
20906;SDS011;10613;50.966;5.814;2023-07-09T21:53:51;10.25;;;7.50;;
20906;SDS011;10613;50.966;5.814;2023-07-09T21:57:58;9.00;;;9.00;;
20906;SDS011;10613;50.966;5.814;2023-07-09T22:02:07;6.00;;;6.00;;
20906;SDS011;10613;50.966;5.814;2023-07-09T22:06:20;9.75;;;9.25;;
20906;SDS011;10613;50.966;5.814;2023-07-09T22:14:37;12.25;;;11.00;;
20906;SDS011;10613;50.966;5.814;2023-07-09T22:18:44;10.00;;;10.00;;
20906;SDS011;10613;50.966;5.814;2023-07-09T22:22:51;9.50;;;8.25;;
20906;SDS011;10613;50.966;5.814;2023-07-09T22:26:59;8.75;;;8.75;;
20906;SDS011;10613;50.966;5.814;2023-07-09T22:31:07;8.00;;;8.00;;
20906;SDS011;10613;50.966;5.814;2023-07-09T22:35:15;5.75;;;5.75;;
20906;SDS011;10613;50.966;5.814;2023-07-09T22:39:22;7.25;;;7.25;;
20906;SDS011;10613;50.966;5.814;2023-07-09T22:43:29;8.25;;;8.25;;
20906;SDS011;10613;50.966;5.814;2023-07-09T22:47:36;9.00;;;6.75;;
20906;SDS011;10613;50.966;5.814;2023-07-09T22:51:43;9.50;;;9.00;;
20906;SDS011;10613;50.966;5.814;2023-07-09T22:55:51;8.00;;;6.00;;
20906;SDS011;10613;50.966;5.814;2023-07-09T22:59:58;5.50;;;5.50;;
20906;SDS011;10613;50.966;5.814;2023-07-09T23:04:09;8.25;;;8.25;;
20906;SDS011;10613;50.966;5.814;2023-07-09T23:12:26;7.25;;;5.75;;
20906;SDS011;10613;50.966;5.814;2023-07-09T23:16:33;8.25;;;8.25;;
20906;SDS011;10613;50.966;5.814;2023-07-09T23:20:40;8.00;;;8.00;;
20906;SDS011;10613;50.966;5.814;2023-07-09T23:24:47;6.25;;;5.75;;
20906;SDS011;10613;50.966;5.814;2023-07-09T23:28:54;11.75;;;9.25;;
20906;SDS011;10613;50.966;5.814;2023-07-09T23:33:02;12.75;;;11.00;;
20906;SDS011;10613;50.966;5.814;2023-07-09T23:37:09;10.50;;;10.50;;
20906;SDS011;10613;50.966;5.814;2023-07-09T23:41:28;10.00;;;10.00;;
20906;SDS011;10613;50.966;5.814;2023-07-09T23:45:35;11.00;;;11.00;;
20906;SDS011;10613;50.966;5.814;2023-07-09T23:49:42;9.75;;;9.75;;
20906;SDS011;10613;50.966;5.814;2023-07-09T23:53:49;9.00;;;9.00;;
20906;SDS011;10613;50.966;5.814;2023-07-09T23:57:58;15.25;;;12.50;;
